Nearby METAR Reports

 

EGVO - Odiham Raf, United Kingdom
Distance from station: E 6mi, 10km
Updated: Sat, 23-Jan-2021 11:27am GMT
unable to load EGVO data RC=
unable to load EGVO data RC=
 
EGLF - Farnborough, United Kingdom
Distance from station: ENE 15mi, 23km
Updated: Sat, 23-Jan-2021 11:20am GMT
Clear
Clear
 Wind from WSW
Wind: WSW 5 mph , 7 km/h
Temperature: 36°F , 2°C
Wind Chill: 32°F , 0°C
Dew Point: 34°F , 1°C
Humidity: 93%
Barometer: 29.38 inHg , 995 hPa
Clouds: Clear
Visibility: 6 miles , 10 km
2021/01/23 11:20 EGLF 231120Z AUTO 25004KT 230V290 9999 NCD 02/01 Q0995
 
EGVP - Middle Wallop, United Kingdom
Distance from station: WSW 22mi, 35km
Updated: Sat, 23-Jan-2021 10:50am GMT
Mostly Cloudy
Mostly Cloudy
 Wind from WNW
Wind: WNW 7 mph , 11 km/h
Temperature: 34°F , 1°C
Wind Chill: 28°F , -2°C
Dew Point: 34°F , 1°C
Humidity: 100%
Barometer: 29.38 inHg , 995 hPa
Clouds: Mostly Cloudy
Visibility: 6 miles , 10 km
Cloud details: Mostly Cloudy 19000 ft
2021/01/23 10:50 EGVP 231050Z AUTO 29006KT 9999 BKN190/// 01/01 Q0995
EGHI - Southampton Wx C, United Kingdom
Distance from station: SSW 23mi, 37km
Updated: Fri, 22-Jan-2021 5:50pm GMT
NOT Current
Partly Cloudy
Partly Cloudy
 Wind from calm
Wind: Calm
Temperature: 41°F , 5°C
Dew Point: 36°F , 2°C
Humidity: 81%
Barometer: 29.35 inHg , 994 hPa
Clouds: Partly Cloudy
Visibility: 6 miles , 10 km
Cloud details: Partly Cloudy 2000 ft
2021/01/22 17:50 EGHI 221750Z 00000KT 9999 SCT020 05/02 Q0994
 
EGUB - Benson Raf, United Kingdom
Distance from station: N 26mi, 42km
Updated: Sat, 23-Jan-2021 10:50am GMT
Mostly Cloudy
Mostly Cloudy
 Wind from WNW
Wind: WNW 5 mph , 7 km/h
Temperature: 32°F , 0°C
Wind Chill: 27°F , -3°C
Dew Point: 32°F , 0°C
Humidity: 100%
Barometer: 29.38 inHg , 995 hPa
Clouds: Mostly Cloudy
Visibility: 3 miles , 5 km
Cloud details: Mostly Cloudy 200 ft
2021/01/23 10:50 EGUB 231050Z AUTO 30004KT 4500 // BKN002/// 00/M00 Q0995
EGDM - Boscombe Down, United Kingdom
Distance from station: W 29mi, 46km
Updated: Sat, 23-Jan-2021 10:50am GMT
Mist, Few clouds
Mist, Few clouds
 Wind from NW
Wind: NW 7 mph , 11 km/h
Temperature: 32°F , 0°C
Wind Chill: 25°F , -4°C
Dew Point: 32°F , 0°C
Humidity: 100%
Barometer: 29.38 inHg , 995 hPa
Summary: Mist
Clouds: Few Clouds
Visibility: 4 miles , 6 km
Cloud details: Few Clouds 100 ft
2021/01/23 10:50 EGDM 231050Z AUTO 31006KT 6000 BR FEW001/// 00/00 Q0995

Metar display script from Saratoga-Weather.org